Sang Run, Maryland
Current Conditions -  °F | °C
As of 7:05 PM on Monday 20 Oct 2014 (Local Time) from K2G4 Reporting Station
Overcast Overcast  
Wind Chill: 44°   Ceiling: 3900
Heat Index: 46°   Visibility: 10mi
Dew Point: 37°   Wind: 6mph
Humidity: 71%   Direction: 230°SW
Pressure: 29.92"   Gusts: NA
Location:  39.5587°N, 79.3486°W
Report Text: K2G4 202305Z AUTO 23005KT 10SM BKN039 OVC060 08/03 A2992 RMK AO1
Loading
Personal Weather Stations






























Interactive Weather Map
Tropical Storm Tracking
New forecast layout! Learn more

10-Day Weather Forecast

Advertisements
Track Severe Weather on mobile